Time;durP1;ratioP1;P1;durP2;ratioP2;P2;SDS_P1;SDS_P2;PMS_P1;PMS_P2;Temp;Humidity;BMP_temperature;BMP_pressure;BME280_temperature;BME280_humidity;BME280_pressure;Samples;Min_cycle;Max_cycle;Signal;HPM_P1;HPM_P2
2023/11/28 00:01:47;;;;;;;5.97;2.55;;;;;;;-1.32;67.68;97514.44;4960674;28;20135;-71
2023/11/28 00:04:13;;;;;;;5.00;2.60;;;;;;;-1.43;67.36;97504.22;4943295;28;20150;-72
2023/11/28 00:07:17;;;;;;;7.15;3.10;;;;;;;-1.32;67.55;97524.66;4946150;28;20110;-73
2023/11/28 00:10:03;;;;;;;4.97;2.63;;;;;;;-1.34;67.96;97523.81;4971279;28;20050;-72
2023/11/28 00:15:14;;;;;;;4.85;2.90;;;;;;;-1.46;67.66;97536.53;4978377;28;20146;-72
2023/11/28 00:17:43;;;;;;;4.80;2.55;;;;;;;-1.64;66.84;97504.16;4976339;28;20047;-72
2023/11/28 00:26:52;;;;;;;5.80;3.38;;;;;;;-1.45;67.36;97558.66;4974020;28;20485;-72
2023/11/28 00:29:37;;;;;;;5.22;2.80;;;;;;;-1.44;67.71;97562.91;4975428;28;20043;-72
2023/11/28 00:40:41;;;;;;;4.47;2.80;;;;;;;-1.35;68.34;97579.94;4980256;28;20089;-70
2023/11/28 00:49:36;;;;;;;5.03;2.53;;;;;;;-1.37;67.48;97590.13;5000964;28;20420;-73
2023/11/28 01:02:09;;;;;;;6.78;2.85;;;;;;;-1.46;67.80;97623.28;4978870;28;20077;-71
2023/11/28 01:10:23;;;;;;;5.45;2.42;;;;;;;-1.57;68.57;97631.72;4983031;28;20043;-70
2023/11/28 01:16:31;;;;;;;4.57;2.90;;;;;;;-1.64;68.56;97631.69;4977819;28;20042;-71
2023/11/28 01:19:17;;;;;;;5.18;3.00;;;;;;;-1.63;68.76;97635.94;4962202;28;20038;-71
2023/11/28 01:21:43;;;;;;;5.68;2.45;;;;;;;-1.69;69.16;97627.41;4979132;28;20156;-69
2023/11/28 01:24:19;;;;;;;6.43;2.72;;;;;;;-1.65;68.80;97646.13;4959335;28;20058;-70
2023/11/28 01:27:04;;;;;;;4.97;2.95;;;;;;;-1.67;69.09;97655.50;4969682;28;20066;-70
2023/11/28 01:29:51;;;;;;;3.67;2.50;;;;;;;-1.70;68.91;97660.56;4994821;28;20497;-72
2023/11/28 01:50:05;;;;;;;5.10;2.70;;;;;;;-1.66;69.65;97682.72;4962144;28;20058;-73
2023/11/28 01:55:37;;;;;;;4.70;2.35;;;;;;;-1.58;69.74;97701.44;4992069;28;20039;-73
2023/11/28 02:01:15;;;;;;;7.47;2.90;;;;;;;-1.63;69.65;97705.66;4980089;28;20049;-74
2023/11/28 02:10:27;;;;;;;8.25;2.70;;;;;;;-1.85;69.92;97736.09;4977741;28;20043;-72
2023/11/28 02:13:31;;;;;;;4.82;2.92;;;;;;;-1.94;70.02;97730.09;4965186;28;20509;-73
2023/11/28 02:16:19;;;;;;;4.28;2.55;;;;;;;-1.94;70.03;97748.81;4979059;28;20050;-72
2023/11/28 02:19:04;;;;;;;4.28;2.30;;;;;;;-2.27;70.29;97701.78;4977071;28;21517;-73
2023/11/28 02:22:10;;;;;;;4.03;2.40;;;;;;;-2.23;70.35;97721.34;4992024;28;20042;-73
2023/11/28 02:24:58;;;;;;;4.18;2.72;;;;;;;-1.97;70.92;97751.31;4995488;28;20047;-73
2023/11/28 02:27:24;;;;;;;5.53;2.72;;;;;;;-2.09;71.06;97725.72;4963773;28;20045;-73
2023/11/28 02:33:18;;;;;;;4.10;2.45;;;;;;;-1.89;71.35;97757.34;4981538;28;20039;-74
2023/11/28 02:36:07;;;;;;;4.32;2.20;;;;;;;-2.18;71.37;97712.06;4973580;28;20049;-74
2023/11/28 02:38:54;;;;;;;2.80;2.22;;;;;;;-1.96;71.14;97773.44;4996602;28;20897;-74
2023/11/28 02:41:39;;;;;;;4.00;2.50;;;;;;;-2.16;70.50;97760.50;4981480;28;20061;-74
2023/11/28 02:44:26;;;;;;;4.88;2.83;;;;;;;-2.12;71.43;97783.50;4996387;28;20035;-74
2023/11/28 02:50:43;;;;;;;5.32;2.63;;;;;;;-2.13;70.79;97781.78;4976658;28;20128;-72
2023/11/28 02:53:28;;;;;;;5.03;3.00;;;;;;;-2.14;71.22;97767.31;4980282;28;20141;-72
2023/11/28 02:56:12;;;;;;;4.38;2.92;;;;;;;-1.90;71.35;97787.91;4978223;28;20053;-74
2023/11/28 02:58:39;;;;;;;3.22;2.22;;;;;;;-1.94;71.29;97778.53;4962746;28;20413;-72
2023/11/28 03:04:45;;;;;;;3.63;2.67;;;;;;;-2.05;71.04;97807.34;4980369;28;20174;-73
2023/11/28 03:10:33;;;;;;;6.47;3.17;;;;;;;-2.21;71.70;97785.94;4977964;28;20445;-73
2023/11/28 03:19:48;;;;;;;4.45;2.90;;;;;;;-2.03;71.97;97826.06;4994206;28;20104;-73
2023/11/28 03:22:33;;;;;;;6.55;2.70;;;;;;;-2.08;71.44;97839.56;4993770;28;20042;-75
2023/11/28 03:28:35;;;;;;;4.90;2.50;;;;;;;-2.21;71.67;97857.28;4961642;28;20730;-74
2023/11/28 03:31:59;;;;;;;3.85;2.30;;;;;;;-2.16;71.71;97860.75;4992288;28;20043;-73
2023/11/28 03:41:01;;;;;;;5.72;2.72;;;;;;;-2.36;71.52;97875.81;4994537;28;20094;-73
2023/11/28 03:44:05;;;;;;;4.50;2.63;;;;;;;-2.36;72.11;97880.06;4961411;28;20201;-76
2023/11/28 03:52:22;;;;;;;4.25;2.63;;;;;;;-2.52;72.15;97863.72;4982748;28;20042;-76
2023/11/28 03:55:26;;;;;;;7.40;3.28;;;;;;;-2.61;71.71;97849.19;4983597;28;20058;-75
2023/11/28 04:01:19;;;;;;;5.78;3.05;;;;;;;-2.29;71.78;97917.50;4979403;28;20039;-74
2023/11/28 04:03:49;;;;;;;5.68;3.13;;;;;;;-2.29;71.90;97914.94;5012612;28;20117;-77
2023/11/28 04:06:34;;;;;;;6.05;3.00;;;;;;;-2.24;71.84;97915.88;4981284;28;20081;-78
2023/11/28 04:09:44;;;;;;;4.53;2.83;;;;;;;-2.55;71.36;97887.47;4992346;28;20065;-79
2023/11/28 04:15:24;;;;;;;6.38;3.28;;;;;;;-2.50;71.89;97924.03;5002259;28;20136;-73
2023/11/28 04:18:12;;;;;;;5.72;3.20;;;;;;;-2.34;71.48;97957.38;4981363;28;20069;-77
2023/11/28 04:24:02;;;;;;;6.03;3.20;;;;;;;-2.92;72.12;97858.94;4999268;28;20094;-71
2023/11/28 04:29:26;;;;;;;5.68;3.10;;;;;;;-2.36;72.02;97959.03;4984982;28;20042;-78
2023/11/28 04:32:11;;;;;;;6.55;3.58;;;;;;;-2.31;71.73;97973.56;5016101;28;20305;-78
2023/11/28 04:35:16;;;;;;;5.93;3.45;;;;;;;-2.90;72.20;97883.63;5014666;28;20128;-76
2023/11/28 04:40:32;;;;;;;4.90;3.05;;;;;;;-2.49;71.40;97958.03;5000778;28;20038;-76
2023/11/28 04:43:35;;;;;;;5.63;3.30;;;;;;;-3.07;71.66;97873.19;5001874;28;20054;-77
2023/11/28 04:49:24;;;;;;;;;;;;;;;-2.35;71.76;98002.38;4999447;28;20072;-76
2023/11/28 04:54:57;;;;;;;9.05;3.55;;;;;;;-2.38;72.42;98014.22;5001125;28;20038;-76
2023/11/28 04:57:43;;;;;;;6.85;3.60;;;;;;;-2.35;72.23;98024.47;5002424;28;20042;-75
2023/11/28 05:00:30;;;;;;;5.65;3.25;;;;;;;-2.73;71.96;97954.28;4983541;28;20060;-76
2023/11/28 05:02:57;;;;;;;5.85;2.97;;;;;;;-2.40;71.84;98014.19;4996990;28;20451;-75
2023/11/28 05:05:49;;;;;;;7.85;3.33;;;;;;;-2.32;71.91;98034.69;4982666;28;20038;-75
2023/11/28 05:08:33;;;;;;;7.18;3.30;;;;;;;-2.52;71.79;98003.81;4999569;28;20042;-76
2023/11/28 05:11:55;;;;;;;8.38;3.55;;;;;;;-2.31;72.17;98039.81;5001620;28;20041;-75
2023/11/28 05:17:24;;;;;;;4.90;3.33;;;;;;;-2.47;71.64;98045.50;4996586;28;20630;-74
2023/11/28 05:20:18;;;;;;;7.30;3.42;;;;;;;-2.44;71.40;98065.94;5011320;28;20077;-73
2023/11/28 05:23:03;;;;;;;8.23;3.55;;;;;;;-2.64;71.28;98051.19;4993761;28;20034;-73
2023/11/28 05:25:51;;;;;;;8.60;3.40;;;;;;;-2.71;71.40;98044.28;4996748;28;20053;-74
2023/11/28 05:28:57;;;;;;;6.40;3.40;;;;;;;-2.49;71.52;98083.69;4981030;28;20042;-72
2023/11/28 05:31:24;;;;;;;6.78;3.33;;;;;;;-2.60;71.81;98077.56;5010753;28;20041;-72
2023/11/28 05:38:27;;;;;;;9.43;4.00;;;;;;;-2.52;71.87;98110.81;5011917;28;20449;-76
2023/11/28 05:47:30;;;;;;;7.53;3.55;;;;;;;-2.81;71.63;98116.25;4996621;28;20044;-75
2023/11/28 05:56:11;;;;;;;5.97;3.03;;;;;;;-2.69;71.34;98133.44;4980037;28;20076;-75
2023/11/28 05:58:40;;;;;;;4.28;2.75;;;;;;;-2.73;71.29;98150.38;5003086;28;20496;-76
2023/11/28 06:07:55;;;;;;;5.68;3.28;;;;;;;-2.95;71.02;98131.28;5015712;28;20096;-75
2023/11/28 06:10:21;;;;;;;7.28;3.08;;;;;;;-3.48;71.35;98052.28;4995654;28;20105;-76
2023/11/28 06:16:13;;;;;;;4.45;2.75;;;;;;;-2.79;71.39;98179.13;5000105;28;20064;-76
2023/11/28 06:19:17;;;;;;;5.68;2.60;;;;;;;-2.82;71.26;98185.84;4981053;28;20069;-78
2023/11/28 06:22:21;;;;;;;8.75;3.38;;;;;;;-2.83;71.13;98192.63;5014991;28;20492;-75
2023/11/28 06:25:11;;;;;;;4.32;2.47;;;;;;;-3.14;71.61;98132.63;4999092;28;20038;-74
2023/11/28 06:27:37;;;;;;;7.40;3.20;;;;;;;-3.47;71.25;98091.31;4982487;28;20070;-76
2023/11/28 06:30:06;;;;;;;6.38;3.20;;;;;;;-3.25;71.02;98118.00;4980660;28;20046;-75
2023/11/28 06:32:33;;;;;;;8.05;3.40;;;;;;;-3.02;71.67;98145.59;5015301;28;20073;-72
2023/11/28 06:38:03;;;;;;;5.55;2.70;;;;;;;-2.83;71.58;98167.16;4979732;28;20125;-73
2023/11/28 06:40:50;;;;;;;5.20;2.80;;;;;;;-2.92;71.42;98139.84;4995097;28;20070;-74
2023/11/28 06:43:36;;;;;;;7.28;3.00;;;;;;;-2.32;71.46;98229.22;4964294;28;20045;-74
2023/11/28 06:49:52;;;;;;;4.43;2.78;;;;;;;-2.23;71.36;98246.34;5009083;28;20060;-73
2023/11/28 06:56:03;;;;;;;6.50;2.90;;;;;;;-2.22;71.34;98265.06;5000049;28;20073;-73
2023/11/28 06:58:48;;;;;;;5.90;3.47;;;;;;;-2.30;71.03;98252.16;4998811;28;20061;-73
2023/11/28 07:01:52;;;;;;;6.90;3.10;;;;;;;-2.24;70.85;98277.75;4983397;28;20134;-72
2023/11/28 07:05:04;;;;;;;4.82;2.90;;;;;;;-2.25;70.73;98282.84;4985619;28;20121;-72
2023/11/28 07:11:36;;;;;;;3.90;2.80;;;;;;;-2.17;70.80;98294.00;5014200;28;20488;-72
2023/11/28 07:14:05;;;;;;;4.78;2.72;;;;;;;-2.82;70.95;98173.97;5013239;28;20037;-75
2023/11/28 07:17:11;;;;;;;5.25;3.03;;;;;;;-2.00;71.23;98291.78;5020930;28;20066;-84
2023/11/28 07:19:38;;;;;;;4.20;2.40;;;;;;;-2.17;70.99;98271.06;5018825;28;20432;-74
2023/11/28 07:23:01;;;;;;;4.50;2.65;;;;;;;-1.93;70.80;98310.59;5023820;28;20037;-71
2023/11/28 07:25:27;;;;;;;5.80;3.05;;;;;;;-2.09;70.95;98279.72;5021371;28;20057;-76
2023/11/28 07:33:28;;;;;;;6.35;2.95;;;;;;;-3.11;69.32;98114.88;5009904;28;20052;-79
2023/11/28 07:40:01;;;;;;;5.15;2.90;;;;;;;-1.78;68.41;98341.47;5021341;28;20048;-77
2023/11/28 07:42:32;;;;;;;5.22;2.60;;;;;;;-1.98;68.74;98311.34;5013097;28;20029;-80
2023/11/28 07:45:36;;;;;;;5.75;2.83;;;;;;;-1.79;68.79;98352.50;5024104;28;20041;-71
2023/11/28 07:53:56;;;;;;;4.38;2.72;;;;;;;-2.22;67.47;98303.28;5016962;28;20042;-72
2023/11/28 08:03:00;;;;;;;7.55;3.22;;;;;;;-1.75;67.36;98374.66;5019808;28;20128;-73
2023/11/28 08:06:07;;;;;;;4.65;2.90;;;;;;;-1.72;67.32;98381.53;5006383;28;20052;-69
2023/11/28 08:08:56;;;;;;;5.78;3.10;;;;;;;-1.72;67.55;98384.91;4982473;28;20041;-69
2023/11/28 08:14:39;;;;;;;6.65;3.13;;;;;;;-1.87;67.13;98356.59;4984367;28;20037;-70
2023/11/28 08:17:05;;;;;;;6.15;3.05;;;;;;;-1.89;67.05;98358.25;5016301;28;20120;-68
2023/11/28 08:19:50;;;;;;;6.63;3.50;;;;;;;-1.76;67.08;98395.88;5018184;28;20073;-68
2023/11/28 08:25:42;;;;;;;5.25;3.08;;;;;;;-2.03;66.65;98375.84;5017896;28;20081;-68
2023/11/28 08:31:31;;;;;;;6.00;3.03;;;;;;;-1.77;66.88;98393.31;5017221;28;20060;-68
2023/11/28 08:34:34;;;;;;;6.05;2.97;;;;;;;-2.14;66.28;98322.13;5012609;28;20318;-71
2023/11/28 08:40:23;;;;;;;;;;;;;;;-1.39;66.22;98433.97;5020792;28;20022;-75
2023/11/28 08:43:32;;;;;;;6.22;2.92;;;;;;;-1.42;66.51;98428.78;5020294;28;19963;-71
2023/11/28 08:50:12;;;;;;;5.97;2.85;;;;;;;-1.11;65.66;98448.06;5019623;28;20496;-69
2023/11/28 08:52:59;;;;;;;7.10;3.38;;;;;;;-1.36;65.68;98423.81;4969499;28;20030;-70
2023/11/28 09:02:29;;;;;;;6.95;3.30;;;;;;;-0.84;66.07;98466.34;5005718;28;20040;-72
2023/11/28 09:05:15;;;;;;;6.78;3.05;;;;;;;-1.48;65.67;98375.97;5021817;28;20064;-67
2023/11/28 09:08:00;;;;;;;4.05;2.65;;;;;;;-0.92;65.34;98464.53;5019436;28;20042;-72
2023/11/28 09:11:07;;;;;;;10.20;3.22;;;;;;;-1.11;65.09;98431.88;5007550;28;20173;-69
2023/11/28 09:17:39;;;;;;;5.70;2.95;;;;;;;-0.84;65.28;98486.78;5021521;28;20050;-70
2023/11/28 09:25:59;;;;;;;3.58;2.55;;;;;;;-1.56;65.78;98428.59;5005909;28;20064;-70
2023/11/28 09:28:50;;;;;;;5.32;2.58;;;;;;;-1.73;65.59;98416.34;5006286;28;20049;-73
2023/11/28 09:31:36;;;;;;;6.40;2.83;;;;;;;-1.27;65.69;98517.53;4988301;28;20048;-71
2023/11/28 09:34:25;;;;;;;6.43;3.08;;;;;;;-1.25;65.32;98521.00;5004634;28;20042;-69
2023/11/28 09:37:04;;;;;;;6.13;2.55;;;;;;;-1.40;65.57;98513.91;4982978;28;20143;-75
2023/11/28 09:39:51;;;;;;;4.70;2.90;;;;;;;-1.43;65.30;98506.19;5005411;28;20036;-72
2023/11/28 09:46:04;;;;;;;5.18;2.53;;;;;;;-1.09;64.35;98532.34;4997784;28;20076;-74
2023/11/28 09:52:34;;;;;;;4.95;2.58;;;;;;;-0.91;64.17;98545.44;5003321;28;20053;-70
2023/11/28 09:55:19;;;;;;;4.57;2.35;;;;;;;-0.91;64.49;98532.66;5004168;28;20065;-70
2023/11/28 09:58:41;;;;;;;4.55;2.38;;;;;;;-0.88;64.37;98551.44;5018600;28;20045;-70
2023/11/28 10:19:44;;;;;;;4.97;2.75;;;;;;;-1.04;63.54;98575.81;4992866;28;20042;-71
2023/11/28 10:22:12;;;;;;;4.03;2.38;;;;;;;-1.26;62.73;98563.53;4988342;28;20042;-71
2023/11/28 10:28:16;;;;;;;6.28;2.17;;;;;;;-1.27;63.21;98559.25;5014600;28;20908;-70
2023/11/28 10:36:31;;;;;;;7.70;2.90;;;;;;;-1.75;62.61;98509.00;4983384;28;20087;-71
2023/11/28 10:41:44;;;;;;;5.10;2.55;;;;;;;-1.30;62.18;98617.91;4979786;28;20500;-70
2023/11/28 10:44:16;;;;;;;6.32;2.63;;;;;;;-1.34;62.27;98633.16;4982205;28;20033;-71
2023/11/28 10:46:48;;;;;;;4.07;2.13;;;;;;;-1.61;62.17;98599.41;4968761;28;20042;-73
2023/11/28 10:49:33;;;;;;;4.75;2.78;;;;;;;-1.79;62.17;98574.41;5001732;28;20042;-69
2023/11/28 10:51:59;;;;;;;4.97;2.72;;;;;;;-1.78;62.12;98596.53;5014698;28;20046;-72
2023/11/28 10:58:05;;;;;;;4.18;2.58;;;;;;;-1.77;61.84;98644.16;5000258;28;20594;-68
2023/11/28 11:00:42;;;;;;;5.10;2.50;;;;;;;-1.80;62.24;98663.63;5018822;28;20407;-69
2023/11/28 11:03:09;;;;;;;4.57;2.70;;;;;;;-1.94;62.12;98665.84;4987712;28;20093;-71
2023/11/28 11:05:36;;;;;;;4.25;2.78;;;;;;;-2.10;61.96;98646.81;4977963;28;20036;-70
2023/11/28 11:08:03;;;;;;;5.35;2.60;;;;;;;-2.30;61.55;98617.47;4969444;28;20120;-74
2023/11/28 11:10:33;;;;;;;4.68;2.63;;;;;;;-2.08;61.95;98656.22;4988106;28;20041;-72
2023/11/28 11:13:22;;;;;;;5.15;2.85;;;;;;;-1.81;62.13;98703.59;4989217;28;20041;-67
2023/11/28 11:15:57;;;;;;;6.15;2.58;;;;;;;-2.07;61.62;98657.06;5021658;28;20042;-76
2023/11/28 11:18:55;;;;;;;6.03;2.83;;;;;;;-2.32;61.65;98613.16;4998424;28;20042;-73
2023/11/28 11:21:33;;;;;;;4.13;2.38;;;;;;;-1.80;61.37;98719.75;5019223;28;20496;-69
2023/11/28 11:24:00;;;;;;;4.28;2.50;;;;;;;-1.88;61.07;98717.88;4982478;28;20046;-71
2023/11/28 11:26:37;;;;;;;4.93;2.40;;;;;;;-1.86;61.77;98712.81;5005288;28;20037;-82
2023/11/28 11:29:49;;;;;;;4.40;2.58;;;;;;;-2.37;61.47;98641.06;4996319;28;20046;-75
2023/11/28 11:32:16;;;;;;;5.22;2.55;;;;;;;-2.03;61.56;98694.56;4984495;28;20042;-71
2023/11/28 11:34:47;;;;;;;5.22;2.88;;;;;;;-1.84;61.73;98729.88;4994036;28;20540;-72
2023/11/28 11:37:21;;;;;;;5.72;2.80;;;;;;;-2.07;61.62;98692.75;4998520;28;20776;-74
2023/11/28 11:40:00;;;;;;;7.10;3.55;;;;;;;-1.65;61.84;98749.84;4995544;28;20450;-72
2023/11/28 11:42:40;;;;;;;6.22;2.80;;;;;;;-2.14;61.71;98663.69;4981057;28;20037;-71
2023/11/28 11:45:08;;;;;;;5.10;3.03;;;;;;;-1.71;61.34;98751.44;4998534;28;20049;-71
2023/11/28 11:47:38;;;;;;;4.80;2.78;;;;;;;-1.79;61.85;98742.75;4997753;28;20147;-71
2023/11/28 11:50:09;;;;;;;5.70;2.60;;;;;;;-1.80;61.50;98763.97;4983051;28;20546;-72
2023/11/28 11:52:35;;;;;;;6.60;2.70;;;;;;;-2.40;61.45;98681.75;4980963;28;20049;-69
2023/11/28 11:55:29;;;;;;;5.38;2.83;;;;;;;-2.13;61.73;98745.34;5013308;28;20042;-70
2023/11/28 11:57:56;;;;;;;5.78;2.63;;;;;;;-2.02;61.74;98777.88;4998929;28;20049;-69
2023/11/28 12:00:25;;;;;;;5.07;3.13;;;;;;;-2.22;62.04;98757.00;5013658;28;20034;-70
2023/11/28 12:02:51;;;;;;;6.00;2.80;;;;;;;-1.99;61.73;98795.81;4996509;28;20037;-70
2023/11/28 12:05:19;;;;;;;6.18;3.38;;;;;;;-2.02;61.86;98808.47;4985110;28;20038;-70
2023/11/28 12:07:48;;;;;;;5.13;3.08;;;;;;;-2.14;61.72;98788.63;4998096;28;20044;-70
2023/11/28 12:10:15;;;;;;;5.72;2.85;;;;;;;-2.22;62.21;98800.31;4992680;28;20072;-70
2023/11/28 12:12:41;;;;;;;5.82;2.88;;;;;;;-2.29;61.70;98807.78;4999354;28;20669;-70
2023/11/28 12:15:14;;;;;;;6.68;3.40;;;;;;;-2.31;61.83;98816.19;4981902;28;20115;-71
2023/11/28 12:17:46;;;;;;;5.93;3.38;;;;;;;-2.46;62.39;98807.31;4979126;28;20064;-70
2023/11/28 12:20:13;;;;;;;6.10;3.15;;;;;;;-2.40;62.60;98824.47;4991298;28;20037;-70
2023/11/28 12:22:52;;;;;;;4.80;2.78;;;;;;;-2.22;62.24;98856.41;4955784;28;20050;-69
2023/11/28 12:25:22;;;;;;;7.15;3.38;;;;;;;-2.38;62.57;98821.97;5012816;28;20132;-71
2023/11/28 12:27:48;;;;;;;4.78;2.70;;;;;;;-2.34;61.84;98834.00;5000256;28;20129;-72
2023/11/28 12:30:18;;;;;;;7.30;3.30;;;;;;;-2.21;62.12;98855.56;4997531;28;20042;-70
2023/11/28 12:32:44;;;;;;;7.82;3.45;;;;;;;-2.25;62.79;98861.41;4982436;28;20045;-70
2023/11/28 12:35:20;;;;;;;7.90;3.17;;;;;;;-2.24;62.75;98866.53;5002784;28;20072;-70
2023/11/28 12:37:48;;;;;;;6.53;3.40;;;;;;;-2.22;62.30;98876.78;5015346;28;20045;-70
2023/11/28 12:40:18;;;;;;;6.00;3.60;;;;;;;-2.13;62.96;98893.19;5004726;28;20160;-70
2023/11/28 12:42:45;;;;;;;6.40;3.05;;;;;;;-2.32;62.84;98851.03;5000463;28;20045;-71
2023/11/28 12:45:23;;;;;;;6.30;3.30;;;;;;;-2.30;62.98;98867.25;5006858;28;20101;-71
2023/11/28 12:47:50;;;;;;;5.80;3.20;;;;;;;-2.05;63.13;98902.72;4998243;28;20038;-71
2023/11/28 12:50:19;;;;;;;6.45;3.30;;;;;;;-2.05;62.67;98918.91;5013212;28;20384;-71
2023/11/28 12:52:46;;;;;;;7.57;3.22;;;;;;;-2.49;62.85;98860.75;4977540;28;20042;-73
2023/11/28 12:55:12;;;;;;;6.75;3.20;;;;;;;-2.61;62.92;98852.75;4997814;28;20046;-73
2023/11/28 12:57:38;;;;;;;7.35;3.58;;;;;;;-2.25;62.63;98925.13;4983550;28;20046;-72
2023/11/28 13:00:08;;;;;;;4.57;3.10;;;;;;;-2.40;63.20;98900.06;4995733;28;20060;-73
2023/11/28 13:02:34;;;;;;;4.72;2.80;;;;;;;-2.30;62.82;98932.63;5016211;28;20119;-72
2023/11/28 13:05:00;;;;;;;5.15;2.78;;;;;;;-2.51;62.72;98917.59;5015148;28;20095;-76
2023/11/28 13:07:27;;;;;;;5.35;2.80;;;;;;;-2.51;62.63;98917.59;5018701;28;20038;-75
2023/11/28 13:09:52;;;;;;;5.47;2.63;;;;;;;-2.49;62.63;98937.19;5003037;28;20045;-75
2023/11/28 13:12:22;;;;;;;5.65;2.75;;;;;;;-2.50;63.05;98942.25;5008047;28;20042;-75
2023/11/28 13:14:55;;;;;;;5.75;2.97;;;;;;;-2.55;62.76;98946.34;5016424;28;20560;-75
2023/11/28 13:17:24;;;;;;;5.20;3.00;;;;;;;-2.50;62.56;98958.38;5003792;28;20460;-76
2023/11/28 13:19:50;;;;;;;6.28;2.92;;;;;;;-2.82;62.53;98911.56;4996627;28;20033;-73
2023/11/28 13:22:18;;;;;;;4.93;2.78;;;;;;;-2.66;62.41;98948.56;4983579;28;20100;-76
2023/11/28 13:24:50;;;;;;;3.45;2.47;;;;;;;-2.89;62.13;98929.22;5015847;28;20107;-74
2023/11/28 13:27:16;;;;;;;6.28;2.72;;;;;;;-2.54;62.19;98981.19;5012551;28;20049;-74
2023/11/28 13:29:45;;;;;;;5.70;2.75;;;;;;;-3.05;61.98;98907.50;4984602;28;20038;-71
2023/11/28 13:32:14;;;;;;;4.40;2.40;;;;;;;-2.77;61.71;98964.41;5000088;28;20323;-69
2023/11/28 13:34:49;;;;;;;6.88;3.22;;;;;;;-2.73;62.21;98993.34;4985641;28;20042;-72
2023/11/28 13:37:18;;;;;;;5.53;2.97;;;;;;;-3.40;62.07;98924.19;4970741;28;20046;-73
2023/11/28 13:39:44;;;;;;;6.32;3.22;;;;;;;-3.09;62.32;98974.41;4982906;28;20178;-73
2023/11/28 13:42:13;;;;;;;4.75;2.67;;;;;;;-3.11;62.41;98988.75;4998325;28;20052;-73
2023/11/28 13:44:39;;;;;;;8.98;4.05;;;;;;;-3.07;62.28;99008.41;4981012;28;20082;-72
2023/11/28 13:47:08;;;;;;;5.47;3.38;;;;;;;-3.22;61.76;98996.03;4980291;28;20058;-71
2023/11/28 13:49:34;;;;;;;5.53;2.97;;;;;;;-3.54;62.12;98959.31;4992347;28;21150;-72
2023/11/28 13:52:01;;;;;;;5.50;3.45;;;;;;;-3.21;62.19;99009.66;4961607;28;20149;-72
2023/11/28 13:54:53;;;;;;;6.53;3.17;;;;;;;-3.34;62.40;99008.34;4976767;28;20386;-72
2023/11/28 13:57:18;;;;;;;6.60;3.30;;;;;;;-3.53;62.16;98991.59;4979648;28;20058;-71
2023/11/28 13:59:44;;;;;;;6.55;3.08;;;;;;;-3.81;62.09;98968.59;4980581;28;20066;-73
2023/11/28 14:02:10;;;;;;;7.68;3.40;;;;;;;-3.55;62.67;99009.34;4986077;28;20034;-75
2023/11/28 14:04:47;;;;;;;8.73;3.40;;;;;;;-3.85;62.58;98968.41;4969587;28;20046;-77
2023/11/28 14:07:16;;;;;;;6.25;3.22;;;;;;;-3.61;62.93;99026.03;4987259;28;20107;-76
2023/11/28 14:09:43;;;;;;;7.20;3.28;;;;;;;-3.61;62.49;99039.66;4999490;28;20042;-76
2023/11/28 14:12:09;;;;;;;6.72;3.30;;;;;;;-4.11;62.46;98966.69;4985125;28;20038;-77
2023/11/28 14:14:35;;;;;;;6.25;3.30;;;;;;;-4.37;62.92;98937.78;4989861;28;20045;-81
2023/11/28 14:17:10;;;;;;;7.82;3.38;;;;;;;-3.81;62.64;99031.28;4969224;28;20039;-77
2023/11/28 14:19:43;;;;;;;6.75;3.38;;;;;;;-4.02;62.60;99013.59;4981957;28;20050;-79
2023/11/28 14:22:24;;;;;;;6.18;3.40;;;;;;;-3.78;62.83;99052.63;4973012;28;20377;-80
2023/11/28 14:24:53;;;;;;;9.05;3.58;;;;;;;-4.25;62.69;98996.66;4984551;28;20043;-75
2023/11/28 14:27:20;;;;;;;7.05;3.35;;;;;;;-4.06;62.96;99035.47;4972231;28;20046;-80
2023/11/28 14:29:47;;;;;;;5.97;3.15;;;;;;;-4.57;62.73;98960.75;4971335;28;20063;-78
2023/11/28 14:32:24;;;;;;;6.45;3.25;;;;;;;-4.02;62.92;99064.44;4986000;28;20041;-78
2023/11/28 14:34:50;;;;;;;6.68;3.20;;;;;;;-4.51;62.72;98994.78;4978064;28;20039;-78
2023/11/28 14:37:24;;;;;;;5.13;3.03;;;;;;;-4.21;62.96;99053.56;4977816;28;20018;-83
2023/11/28 14:39:56;;;;;;;5.78;3.65;;;;;;;-4.32;62.76;99063.31;4960300;28;20446;-75
2023/11/28 14:42:25;;;;;;;6.20;2.97;;;;;;;-4.32;63.04;99063.31;4984624;28;20100;-82
2023/11/28 14:44:54;;;;;;;62.45;24.95;;;;;;;-4.18;62.96;99096.00;4953528;28;20092;-79
2023/11/28 14:47:23;;;;;;;5.75;3.13;;;;;;;-4.23;62.91;99088.22;4988004;28;20183;-76
2023/11/28 14:49:52;;;;;;;5.75;3.38;;;;;;;-4.47;62.64;99066.13;4956088;28;20039;-75
2023/11/28 14:52:19;;;;;;;7.55;3.45;;;;;;;-5.04;63.34;98988.53;4966047;28;20051;-76
2023/11/28 14:54:45;;;;;;;6.50;3.03;;;;;;;-5.19;63.02;98965.06;4983371;28;20089;-78
2023/11/28 14:57:12;;;;;;;6.70;3.50;;;;;;;-4.94;62.96;99015.16;4981476;28;20047;-77
2023/11/28 14:59:40;;;;;;;6.72;3.00;;;;;;;-4.85;63.18;99042.56;4985819;28;20076;-78
2023/11/28 15:02:10;;;;;;;10.68;3.47;;;;;;;-4.55;63.48;99091.22;4950058;28;20047;-79
2023/11/28 15:04:45;;;;;;;5.07;2.58;;;;;;;-4.57;63.40;99094.47;4986679;28;20120;-81
2023/11/28 15:07:12;;;;;;;4.82;2.88;;;;;;;-4.46;63.38;99125.38;4986717;28;20053;-78
2023/11/28 15:09:39;;;;;;;4.65;2.63;;;;;;;-4.75;63.07;99095.47;4952065;28;20038;-78
2023/11/28 15:12:06;;;;;;;6.97;3.78;;;;;;;-5.24;62.89;99033.41;4999027;28;20452;-77
2023/11/28 15:14:39;;;;;;;6.72;2.90;;;;;;;-4.60;62.97;99142.59;4984385;28;20094;-76
2023/11/28 15:17:05;;;;;;;6.95;3.20;;;;;;;-5.09;62.95;99071.22;4962680;28;20043;-74
2023/11/28 15:19:32;;;;;;;9.70;3.47;;;;;;;-5.16;62.86;99064.16;4970984;28;20043;-75
2023/11/28 15:21:59;;;;;;;6.60;3.55;;;;;;;-5.13;62.91;99071.91;4982793;28;20051;-80
2023/11/28 15:24:28;;;;;;;7.10;3.38;;;;;;;-4.61;63.17;99154.44;4954537;28;20038;-76
2023/11/28 15:26:54;;;;;;;8.43;3.80;;;;;;;-4.69;63.01;99145.63;4980219;28;20063;-73
2023/11/28 15:29:27;;;;;;;7.20;3.70;;;;;;;-4.77;63.55;99137.69;4966158;28;20975;-75
2023/11/28 15:32:18;;;;;;;8.48;4.10;;;;;;;-4.77;63.05;99152.06;4981316;28;20526;-75
2023/11/28 15:34:54;;;;;;;7.32;3.90;;;;;;;-5.03;62.97;99118.84;4986157;28;20058;-72
2023/11/28 15:37:22;;;;;;;7.15;3.67;;;;;;;-5.40;62.88;99069.03;4984014;28;20043;-71
2023/11/28 15:39:48;;;;;;;6.18;3.42;;;;;;;-4.82;62.96;99173.84;4971695;28;20055;-74
2023/11/28 15:42:14;;;;;;;6.90;3.40;;;;;;;-5.16;63.44;99130.97;4981129;28;20057;-77
2023/11/28 15:44:52;;;;;;;8.57;3.95;;;;;;;-5.03;62.68;99161.97;4984681;28;20069;-77
2023/11/28 15:47:23;;;;;;;13.23;5.05;;;;;;;-5.15;63.12;99142.00;4970694;28;20038;-73
2023/11/28 15:49:49;;;;;;;9.18;4.15;;;;;;;-4.86;63.11;99183.88;4953081;28;20043;-74
2023/11/28 15:52:18;;;;;;;8.38;4.15;;;;;;;-4.82;63.54;99186.53;4965581;28;20077;-70
2023/11/28 15:54:50;;;;;;;8.30;4.05;;;;;;;-4.86;63.22;99181.34;4972041;28;20065;-71
2023/11/28 15:57:16;;;;;;;6.45;3.83;;;;;;;-5.47;63.32;99098.34;4971595;28;20130;-72
2023/11/28 15:59:43;;;;;;;12.55;4.25;;;;;;;-5.02;63.46;99162.03;4974372;28;20066;-71
2023/11/28 16:02:10;;;;;;;7.45;3.92;;;;;;;-5.45;63.69;99081.53;4965881;28;20038;-71
2023/11/28 16:04:36;;;;;;;12.07;5.13;;;;;;;-4.91;63.61;99167.56;4992739;28;20047;-71
2023/11/28 16:07:05;;;;;;;10.40;4.68;;;;;;;-4.88;63.81;99159.25;4985673;28;20034;-71
2023/11/28 16:09:32;;;;;;;8.45;4.22;;;;;;;-4.48;64.07;99204.09;4945675;28;20049;-72
2023/11/28 16:12:01;;;;;;;6.88;4.03;;;;;;;-4.59;64.04;99202.75;4975534;28;20053;-71
2023/11/28 16:14:29;;;;;;;8.30;4.40;;;;;;;-4.50;63.40;99212.41;4965449;28;20051;-72
2023/11/28 16:16:58;;;;;;;8.55;4.45;;;;;;;-5.01;63.78;99142.63;4992510;28;20062;-72
2023/11/28 16:19:24;;;;;;;7.97;4.22;;;;;;;-4.52;63.46;99229.28;4977626;28;20409;-73
2023/11/28 16:21:51;;;;;;;7.50;4.32;;;;;;;-4.79;63.81;99186.69;4978227;28;20042;-71
2023/11/28 16:24:19;;;;;;;7.40;3.95;;;;;;;-4.74;63.98;99191.16;4974400;28;20049;-71
2023/11/28 16:26:46;;;;;;;9.00;4.35;;;;;;;-4.69;64.05;99210.00;4976213;28;20045;-70
2023/11/28 16:29:14;;;;;;;9.30;3.92;;;;;;;-4.82;63.99;99184.84;4974186;28;20137;-71
2023/11/28 16:31:40;;;;;;;7.47;4.18;;;;;;;-4.72;63.45;99229.28;4966215;28;20073;-70
2023/11/28 16:34:14;;;;;;;7.85;3.90;;;;;;;-4.87;63.82;99214.28;4976992;28;20043;-77
2023/11/28 16:36:42;;;;;;;9.38;4.30;;;;;;;-4.75;63.49;99250.34;4992036;28;20050;-71
2023/11/28 16:39:10;;;;;;;8.75;4.38;;;;;;;-4.95;63.54;99233.38;4976314;28;20050;-73
2023/11/28 16:41:36;;;;;;;7.85;3.75;;;;;;;-5.07;64.01;99221.00;4951259;28;20062;-74
2023/11/28 16:44:26;;;;;;;7.97;4.22;;;;;;;-5.03;64.24;99246.59;5006957;28;20448;-71
2023/11/28 16:46:53;;;;;;;8.65;4.22;;;;;;;-5.15;64.06;99236.75;5019267;28;20045;-72
2023/11/28 16:49:22;;;;;;;7.82;4.10;;;;;;;-5.15;64.44;99234.22;5003969;28;20048;-73